Temp: 4.4°C   Baro: 1017.3mb
  Wind: 0.0mph   Dir: NNW (342°)
  Rain: 0.0mm (0.0mm/hr)
  Solar: 0W/m2  Hum: 83%

Historic data

Bath Spa Weather Station Historical Data
Daily Summary for January 24, 2021 Units:  Metric    English   Both
Daily Weekly Monthly Yearly Custom
  High: Low: Average:
Temperature: 8.5 °C 5.4 °C 6.8 °C
Dew Point: 6.7 °C 4.3 °C 5.3 °C
Humidity: 92% 80.4% 88%
Wind Speed: 8km/h 0km/h 0.3km/h
Wind Gust: 16.1km/h - -
Wind- - North
Pressure: 1030 hPa 1016.8 hPa -
Precipitation: 0 mm    
Historical Graphs
 
 
Tabular Data for January 24, 2021
Time Temperature Dew Point Pressure Wind Wind Speed Wind Gust Humidity Rainfall Rate (Hourly) solar
00:04 7.3 °C 6.1 °C 1030 hPa Calm     89% 0 mm 0 W/m2
00:09 7.3 °C 6.1 °C 1030 hPa Calm     89% 0 mm 0 W/m2
00:14 7.3 °C 6.2 °C 1030 hPa Calm     89.2% 0 mm 0 W/m2
00:19 7.4 °C 6.3 °C 1030 hPa Calm     89.4% 0 mm 0 W/m2
00:24 7.4 °C 6.2 °C 1030 hPa Calm     89% 0 mm 0 W/m2
00:29 7.4 °C 6.2 °C 1030 hPa Calm     89% 0 mm 0 W/m2
00:34 7.3 °C 6.2 °C 1030 hPa Calm     89% 0 mm 0 W/m2
00:39 7.4 °C 6.2 °C 1029.7 hPa Calm     89% 0 mm 0 W/m2
00:44 7.3 °C 6.2 °C 1029.7 hPa Calm     89% 0 mm 0 W/m2
00:49 7.3 °C 6.1 °C 1029.7 hPa Calm     89% 0 mm 0 W/m2
00:54 7.3 °C 6.1 °C 1029.7 hPa Calm     89% 0 mm 0 W/m2
00:59 7.2 °C 6 °C 1029.3 hPa Calm     89% 0 mm 0 W/m2
01:04 7.1 °C 5.9 °C 1029.3 hPa Calm     89% 0 mm 0 W/m2
01:09 7.1 °C 6.1 °C 1029.3 hPa Calm     90% 0 mm 0 W/m2
01:14 7.1 °C 6.1 °C 1029.3 hPa Calm     90% 0 mm 0 W/m2
01:19 7 °C 6 °C 1029.3 hPa Calm     90% 0 mm 0 W/m2
01:24 6.9 °C 5.9 °C 1029.3 hPa Calm     90% 0 mm 0 W/m2
01:29 6.9 °C 5.9 °C 1029.3 hPa Calm     90% 0 mm 0 W/m2
01:34 6.9 °C 5.9 °C 1029 hPa Calm     90% 0 mm 0 W/m2
01:39 6.9 °C 5.9 °C 1029 hPa Calm     90% 0 mm 0 W/m2
01:44 6.9 °C 5.9 °C 1029 hPa Calm     90% 0 mm 0 W/m2
01:49 6.9 °C 5.9 °C 1029 hPa Calm     90% 0 mm 0 W/m2
01:54 6.9 °C 5.9 °C 1029 hPa Calm     90% 0 mm 0 W/m2
01:59 6.9 °C 5.9 °C 1028.7 hPa Calm     90% 0 mm 0 W/m2
02:04 6.9 °C 5.9 °C 1028.7 hPa Calm     90% 0 mm 0 W/m2
02:09 6.9 °C 5.9 °C 1028.7 hPa Calm     90% 0 mm 0 W/m2
02:14 7 °C 6 °C 1028.7 hPa Calm     90% 0 mm 0 W/m2
02:19 7 °C 6 °C 1028.7 hPa Calm     90% 0 mm 0 W/m2
02:20 7 °C 6 °C 1028.3 hPa Calm     90% 0 mm 0 W/m2
02:29 7 °C 6 °C 1028.3 hPa Calm     90% 0 mm 0 W/m2
02:34 7 °C 6 °C 1028.3 hPa Calm     89.8% 0 mm 0 W/m2
02:39 7.1 °C 6 °C 1028.3 hPa Calm     89.5% 0 mm 0 W/m2
02:44 7.1 °C 5.9 °C 1028.3 hPa Calm     89% 0 mm 0 W/m2
02:49 7.1 °C 5.9 °C 1028.3 hPa Calm     89% 0 mm 0 W/m2
02:54 7.1 °C 5.9 °C 1028 hPa Calm     89% 0 mm 0 W/m2
02:59 7 °C 5.8 °C 1028 hPa Calm     89% 0 mm 0 W/m2
03:04 7 °C 5.8 °C 1028 hPa Calm     89% 0 mm 0 W/m2
03:09 7 °C 5.8 °C 1028 hPa Calm     88.8% 0 mm 0 W/m2
03:14 7.1 °C 5.7 °C 1027.7 hPa Calm     88% 0 mm 0 W/m2
03:19 7 °C 5.6 °C 1027.7 hPa Calm     88% 0 mm 0 W/m2
03:24 7 °C 5.6 °C 1027.7 hPa Calm     88% 0 mm 0 W/m2
03:29 6.9 °C 5.6 °C 1027.7 hPa Calm     88% 0 mm 0 W/m2
03:34 6.9 °C 5.5 °C 1027.7 hPa Calm     88% 0 mm 0 W/m2
03:39 6.9 °C 5.5 °C 1027.7 hPa Calm     88% 0 mm 0 W/m2
03:44 6.9 °C 5.5 °C 1027.7 hPa Calm     88% 0 mm 0 W/m2
03:49 6.9 °C 5.5 °C 1027.3 hPa Calm     88% 0 mm 0 W/m2
03:54 7 °C 5.5 °C 1027.3 hPa Calm     87% 0 mm 0 W/m2
03:59 6.9 °C 5.4 °C 1027.3 hPa Calm     87% 0 mm 0 W/m2
04:04 6.9 °C 5.4 °C 1027.3 hPa Calm     87% 0 mm 0 W/m2
04:09 6.9 °C 5.4 °C 1027.3 hPa Calm     87% 0 mm 0 W/m2
04:14 6.9 °C 5.4 °C 1027.3 hPa Calm     87% 0 mm 0 W/m2
04:19 6.8 °C 5.3 °C 1027.3 hPa Calm     87% 0 mm 0 W/m2
04:24 6.8 °C 5.3 °C 1027.3 hPa Calm     87% 0 mm 0 W/m2
04:29 6.8 °C 5.3 °C 1027.3 hPa Calm     87% 0 mm 0 W/m2
04:34 6.8 °C 5.3 °C 1027 hPa Calm     87% 0 mm 0 W/m2
04:39 6.8 °C 5.3 °C 1027 hPa Calm     87% 0 mm 0 W/m2
04:44 6.8 °C 5.3 °C 1027 hPa Calm     87% 0 mm 0 W/m2
04:49 6.8 °C 5.3 °C 1027 hPa Calm     87% 0 mm 0 W/m2
04:54 6.8 °C 5.3 °C 1026.6 hPa Calm     87% 0 mm 0 W/m2
04:59 6.8 °C 5.3 °C 1026.6 hPa Calm     87% 0 mm 0 W/m2
05:04 6.8 °C 5.3 °C 1026.6 hPa Calm     87% 0 mm 0 W/m2
05:09 6.8 °C 5.3 °C 1026.6 hPa Calm     87% 0 mm 0 W/m2
05:14 6.7 °C 5.2 °C 1026.6 hPa Calm     87% 0 mm 0 W/m2
05:19 6.7 °C 5.2 °C 1026.6 hPa Calm     87% 0 mm 0 W/m2
05:24 6.7 °C 5.2 °C 1026.6 hPa Calm     87% 0 mm 0 W/m2
05:29 6.7 °C 5.2 °C 1026.6 hPa Calm     87% 0 mm 0 W/m2
05:34 6.7 °C 5.2 °C 1026.6 hPa Calm     87% 0 mm 0 W/m2
05:39 6.7 °C 5.2 °C 1026.6 hPa Calm     87% 0 mm 0 W/m2
05:44 6.7 °C 5.2 °C 1026.6 hPa Calm     87% 0 mm 0 W/m2
05:49 6.6 °C 5.1 °C 1026.6 hPa Calm     87% 0 mm 0 W/m2
05:54 6.6 °C 5.1 °C 1026.3 hPa Calm     87% 0 mm 0 W/m2
05:59 6.6 °C 5.2 °C 1026.3 hPa Calm     87.8% 0 mm 0 W/m2
06:04 6.6 °C 5.2 °C 1026.3 hPa Calm     87.6% 0 mm 0 W/m2
06:09 6.6 °C 5.2 °C 1026.3 hPa Calm     88% 0 mm 0 W/m2
06:13 6.6 °C 5.2 °C 1026 hPa Calm     88% 0 mm 0 W/m2
06:19 6.6 °C 5.2 °C 1026 hPa Calm     88% 0 mm 0 W/m2
06:24 6.6 °C 5.2 °C 1026 hPa Calm     88% 0 mm 0 W/m2
06:29 6.6 °C 5.2 °C 1026 hPa Calm     88% 0 mm 0 W/m2
06:34 6.6 °C 5.2 °C 1026 hPa Calm     88% 0 mm 0 W/m2
06:39 6.6 °C 5.2 °C 1026 hPa Calm     88% 0 mm 0 W/m2
06:44 6.6 °C 5.2 °C 1026 hPa Calm     88% 0 mm 0 W/m2
06:49 6.6 °C 5.2 °C 1026 hPa Calm     88% 0 mm 0 W/m2
06:54 6.6 °C 5.2 °C 1025.6 hPa Calm     88% 0 mm 0 W/m2
06:59 6.6 °C 5.2 °C 1025.6 hPa Calm     88% 0 mm 0 W/m2
07:04 6.7 °C 5.2 °C 1025.6 hPa Calm     88% 0 mm 0 W/m2
07:09 6.7 °C 5.3 °C 1025.6 hPa Calm     88% 0 mm 0 W/m2
07:14 6.7 °C 5.3 °C 1025.6 hPa Calm     88% 0 mm 0 W/m2
07:18 6.7 °C 5.3 °C 1025.6 hPa Calm     88% 0 mm 0 W/m2
07:24 6.8 °C 5.4 °C 1025.6 hPa Calm     88% 0 mm 0 W/m2
07:29 6.7 °C 5.3 °C 1025.6 hPa Calm     88% 0 mm 0 W/m2
07:34 6.7 °C 5.3 °C 1025.6 hPa Calm     88% 0 mm 0 W/m2
07:39 6.8 °C 5.4 °C 1025.6 hPa Calm     88% 0 mm 0 W/m2
07:44 7.1 °C 5.7 °C 1025.6 hPa Calm     88% 0 mm 0 W/m2
07:49 7.4 °C 6.2 °C 1025.6 hPa Calm     89% 0 mm 0 W/m2
07:53 7.7 °C 6.6 °C 1025.6 hPa Calm     89% 0 mm 0 W/m2
07:59 7.9 °C 6.7 °C 1025.6 hPa Calm     89% 0 mm 0 W/m2
08:04 8.1 °C 6.7 °C 1025.6 hPa Calm     88.4% 0 mm 0 W/m2
08:09 7.8 °C 6.4 °C 1025.3 hPa Calm     87.8% 0 mm 0 W/m2
08:14 7.8 °C 6.3 °C 1025.3 hPa Calm     87.6% 0 mm 0 W/m2
08:19 7.4 °C 5.9 °C 1025.3 hPa Calm     87% 0 mm 7 W/m2
08:24 7.4 °C 5.9 °C 1024.9 hPa Calm     87% 0 mm 9 W/m2
08:29 7.7 °C 6.2 °C 1024.9 hPa Calm     87% 0 mm 12 W/m2
08:34 7.9 °C 6.4 °C 1024.9 hPa Calm     87% 0 mm 14 W/m2
08:39 7.8 °C 6.2 °C 1024.9 hPa Calm     86.6% 0 mm 14 W/m2
08:44 7.3 °C 5.6 °C 1024.9 hPa Calm     86% 0 mm 12 W/m2
08:49 7.1 °C 5.3 °C 1024.9 hPa Calm     86% 0 mm 12 W/m2
08:54 6.8 °C 5.2 °C 1024.9 hPa Calm     86.4% 0 mm 12 W/m2
08:59 6.7 °C 5.2 °C 1024.9 hPa Calm     87% 0 mm 12 W/m2
09:04 6.7 °C 5.2 °C 1024.9 hPa Calm     87% 0 mm 12 W/m2
09:09 6.6 °C 5.1 °C 1024.9 hPa Calm     87% 0 mm 11 W/m2
09:14 6.6 °C 5.1 °C 1024.9 hPa Calm     87% 0 mm 12 W/m2
09:19 6.5 °C 5 °C 1024.9 hPa Calm     87% 0 mm 12 W/m2
09:24 6.5 °C 5.1 °C 1024.9 hPa Calm     87.6% 0 mm 12 W/m2
09:29 6.4 °C 5.1 °C 1024.6 hPa Calm     87.8% 0 mm 12 W/m2
09:34 6.5 °C 5.1 °C 1024.6 hPa Calm     88% 0 mm 12 W/m2
09:39 6.6 °C 5.2 °C 1024.6 hPa Calm     88% 0 mm 12 W/m2
09:44 6.6 °C 5.2 °C 1024.6 hPa Calm     88% 0 mm 14 W/m2
09:49 6.6 °C 5.2 °C 1024.6 hPa Calm     88% 0 mm 18 W/m2
09:54 6.5 °C 5.1 °C 1024.6 hPa Calm     88% 0 mm 14 W/m2
09:59 6.5 °C 5.1 °C 1024.6 hPa Calm     88% 0 mm 14 W/m2
10:04 6.4 °C 5.1 °C 1024.3 hPa Calm   1.6 km/h 88% 0 mm 16 W/m2
10:09 6.4 °C 5.2 °C 1024.3 hPa Calm     88.6% 0 mm 21 W/m2
10:14 6.4 °C 5.2 °C 1024.3 hPa Calm     89% 0 mm 26 W/m2
10:19 6.6 °C 5.4 °C 1023.9 hPa Calm     89% 0 mm 33 W/m2
10:24 6.7 °C 5.5 °C 1023.9 hPa Calm     89% 0 mm 37 W/m2
10:29 6.8 °C 5.6 °C 1023.9 hPa Calm     89% 0 mm 44 W/m2
10:34 7.1 °C 5.8 °C 1023.9 hPa Calm     88.8% 0 mm 44 W/m2
10:39 7.1 °C 5.7 °C 1023.9 hPa Calm     88% 0 mm 46 W/m2
10:44 6.9 °C 5.5 °C 1023.9 hPa Calm     88% 0 mm 44 W/m2
10:49 6.8 °C 5.3 °C 1023.6 hPa Calm     87% 0 mm 47 W/m2
10:54 6.8 °C 5.3 °C 1023.6 hPa Calm     87% 0 mm 47 W/m2
10:59 6.8 °C 5.3 °C 1023.2 hPa Calm     87% 0 mm 44 W/m2
11:04 6.9 °C 5.4 °C 1023.2 hPa Calm     87% 0 mm 39 W/m2
11:09 6.9 °C 5.4 °C 1023.2 hPa Calm     87% 0 mm 39 W/m2
11:14 6.9 °C 5.4 °C 1023.2 hPa Calm     87% 0 mm 44 W/m2
11:19 6.9 °C 5.4 °C 1023.2 hPa Calm     87% 0 mm 49 W/m2
11:24 6.9 °C 5.4 °C 1022.9 hPa Calm     87% 0 mm 47 W/m2
11:29 6.8 °C 5.3 °C 1022.9 hPa Calm     87% 0 mm 47 W/m2
11:34 6.8 °C 5.3 °C 1022.9 hPa Calm     87% 0 mm 49 W/m2
11:39 6.8 °C 5.3 °C 1022.6 hPa Calm     87% 0 mm 53 W/m2
11:44 6.8 °C 5.3 °C 1022.6 hPa Calm     87% 0 mm 65 W/m2
11:49 6.8 °C 5.3 °C 1022.2 hPa Calm     87% 0 mm 63 W/m2
11:54 6.8 °C 5.3 °C 1022.2 hPa Calm     87% 0 mm 60 W/m2
11:59 6.8 °C 5.3 °C 1022.2 hPa Calm     87.6% 0 mm 56 W/m2
12:04 6.8 °C 5.3 °C 1021.9 hPa Calm     88% 0 mm 65 W/m2
12:09 6.8 °C 5.4 °C 1021.9 hPa Calm     88% 0 mm 86 W/m2
12:14 6.8 °C 5.4 °C 1021.9 hPa Calm     88% 0 mm 83 W/m2
12:19 6.9 °C 5.5 °C 1021.9 hPa Calm     88% 0 mm 86 W/m2
12:24 6.9 °C 5.5 °C 1021.9 hPa Calm     88% 0 mm 84 W/m2
12:29 6.9 °C 5.5 °C 1021.9 hPa Calm     88% 0 mm 88 W/m2
12:34 6.9 °C 5.5 °C 1021.6 hPa Calm     88% 0 mm 97 W/m2
12:39 7.1 °C 5.7 °C 1021.6 hPa Calm     88% 0 mm 90 W/m2
12:44 7 °C 5.6 °C 1021.6 hPa Calm     88% 0 mm 86 W/m2
12:49 6.9 °C 5.6 °C 1021.2 hPa Calm     88% 0 mm 107 W/m2
12:54 7.1 °C 5.7 °C 1021.2 hPa Calm     87.8% 0 mm 105 W/m2
12:59 7.1 °C 5.6 °C 1021.2 hPa Calm     87% 0 mm 88 W/m2
13:04 7.1 °C 5.6 °C 1021.2 hPa Calm     87% 0 mm 83 W/m2
13:09 7.2 °C 5.7 °C 1020.9 hPa Calm     87% 0 mm 90 W/m2
13:14 7.2 °C 5.7 °C 1020.9 hPa Calm     87% 0 mm 109 W/m2
13:18 7.2 °C 5.7 °C 1020.5 hPa Calm     87% 0 mm 111 W/m2
13:24 7.3 °C 5.8 °C 1020.5 hPa Calm     87% 0 mm 134 W/m2
13:29 7.3 °C 5.8 °C 1020.5 hPa Calm     87% 0 mm 128 W/m2
13:34 7.3 °C 5.8 °C 1020.5 hPa Calm     87% 0 mm 109 W/m2
13:39 7.4 °C 5.8 °C 1020.5 hPa Calm     86.6% 0 mm 93 W/m2
13:44 7.4 °C 5.7 °C 1020.2 hPa Calm     86% 0 mm 125 W/m2
13:49 7.6 °C 6 °C 1020.2 hPa Calm     86.6% 0 mm 134 W/m2
13:54 7.8 °C 6.2 °C 1019.9 hPa Calm     86.4% 0 mm 179 W/m2
13:59 7.9 °C 6.2 °C 1019.9 hPa Calm     85.6% 0 mm 237 W/m2
14:04 8.1 °C 6.2 °C 1019.9 hPa Calm     85% 0 mm 137 W/m2
14:09 8 °C 6 °C 1019.5 hPa Calm     84% 0 mm 151 W/m2
14:14 8.1 °C 5.9 °C 1019.5 hPa Calm     83.4% 0 mm 158 W/m2
14:19 8.1 °C 5.8 °C 1019.5 hPa Calm   3.2 km/h 82.8% 0 mm 97 W/m2
14:24 8.1 °C 5.6 °C 1019.5 hPa North 1.3 km/h 6.4 km/h 81.6% 0 mm 98 W/m2
14:29 8.2 °C 5.6 °C 1019.2 hPa Calm   3.2 km/h 81% 0 mm 90 W/m2
14:34 8.2 °C 5.6 °C 1019.2 hPa North 0.6 km/h 4.8 km/h 81% 0 mm 163 W/m2
14:39 8.3 °C 5.7 °C 1019.2 hPa North 0.6 km/h 4.8 km/h 81.2% 0 mm 144 W/m2
14:44 8.5 °C 5.9 °C 1019.2 hPa Calm     81% 0 mm 141 W/m2
14:49 8.5 °C 5.9 °C 1018.8 hPa North 1 km/h 4.8 km/h 81% 0 mm 98 W/m2
14:54 8.3 °C 5.6 °C 1018.8 hPa North 0.6 km/h 4.8 km/h 80.4% 0 mm 83 W/m2
14:59 8.2 °C 5.6 °C 1018.8 hPa Calm   1.6 km/h 81% 0 mm 72 W/m2
15:04 8.2 °C 5.6 °C 1018.8 hPa Calm     81% 0 mm 54 W/m2
15:09 8.1 °C 5.5 °C 1018.8 hPa Calm     81% 0 mm 54 W/m2
15:14 8 °C 5.4 °C 1018.8 hPa Calm     81% 0 mm 51 W/m2
15:19 8 °C 5.4 °C 1018.5 hPa Calm     81% 0 mm 53 W/m2
15:24 8.1 °C 5.6 °C 1018.5 hPa Calm     81.6% 0 mm 53 W/m2
15:29 8.1 °C 5.7 °C 1018.5 hPa Calm     82% 0 mm 46 W/m2
15:34 8.1 °C 5.6 °C 1018.5 hPa Calm     81.6% 0 mm 26 W/m2
15:39 7.9 °C 5.3 °C 1018.5 hPa Calm     81% 0 mm 19 W/m2
15:44 7.9 °C 5.3 °C 1018.5 hPa Calm     81.2% 0 mm 14 W/m2
15:49 8.2 °C 5.7 °C 1018.5 hPa Calm     82% 0 mm 11 W/m2
15:54 8.3 °C 5.9 °C 1018.5 hPa Calm     82% 0 mm 7 W/m2
15:59 8.3 °C 5.9 °C 1018.2 hPa Calm     82% 0 mm 5 W/m2
16:04 8.3 °C 5.9 °C 1018.2 hPa Calm     82% 0 mm 5 W/m2
16:09 8.2 °C 5.8 °C 1018.2 hPa Calm     82% 0 mm 5 W/m2
16:14 8.1 °C 5.7 °C 1018.2 hPa Calm     82% 0 mm 0 W/m2
16:19 7.9 °C 5.6 °C 1018.2 hPa Calm     82.6% 0 mm 0 W/m2
16:24 7.7 °C 5.6 °C 1017.8 hPa Calm     83% 0 mm 0 W/m2
16:29 7.6 °C 5.4 °C 1017.8 hPa Calm     83.4% 0 mm 0 W/m2
16:34 7.4 °C 5.4 °C 1017.8 hPa Calm     84% 0 mm 0 W/m2
16:39 7.4 °C 5.4 °C 1017.8 hPa Calm     84% 0 mm 0 W/m2
16:44 7.3 °C 5.3 °C 1017.8 hPa Calm     84% 0 mm 0 W/m2
16:49 7.2 °C 5.2 °C 1017.8 hPa Calm     84.8% 0 mm 0 W/m2
16:54 6.8 °C 4.9 °C 1017.8 hPa Calm     85% 0 mm 0 W/m2
16:59 6.7 °C 4.9 °C 1017.8 hPa Calm     85.4% 0 mm 0 W/m2
17:04 6.6 °C 4.8 °C 1017.8 hPa Calm     86% 0 mm 0 W/m2
17:09 6.4 °C 4.7 °C 1017.8 hPa Calm     86% 0 mm 0 W/m2
17:14 6.3 °C 4.8 °C 1017.5 hPa Calm     87% 0 mm 0 W/m2
17:19 6.3 °C 4.8 °C 1017.5 hPa Calm     87% 0 mm 0 W/m2
17:24 6.1 °C 4.6 °C 1017.5 hPa Calm     87% 0 mm 0 W/m2
17:29 6.1 °C 4.6 °C 1017.5 hPa Calm     87% 0 mm 0 W/m2
17:34 5.9 °C 4.5 °C 1017.5 hPa Calm     87.2% 0 mm 0 W/m2
17:39 5.9 °C 4.6 °C 1017.5 hPa Calm     88% 0 mm 0 W/m2
17:44 5.9 °C 4.6 °C 1017.2 hPa Calm     88% 0 mm 0 W/m2
17:49 5.8 °C 4.6 °C 1017.2 hPa Calm     88% 0 mm 0 W/m2
17:54 5.9 °C 4.6 °C 1017.2 hPa Calm     88% 0 mm 0 W/m2
17:59 5.8 °C 4.6 °C 1017.5 hPa Calm     88% 0 mm 0 W/m2
18:04 5.8 °C 4.5 °C 1017.5 hPa Calm     88% 0 mm 0 W/m2
18:09 5.8 °C 4.5 °C 1017.5 hPa Calm     88% 0 mm 0 W/m2
18:14 5.8 °C 4.5 °C 1017.5 hPa Calm     88% 0 mm 0 W/m2
18:19 5.8 °C 4.5 °C 1017.5 hPa Calm     88% 0 mm 0 W/m2
18:24 5.7 °C 4.4 °C 1017.5 hPa Calm     88% 0 mm 0 W/m2
18:29 5.6 °C 4.3 °C 1017.5 hPa Calm     88.2% 0 mm 0 W/m2
18:34 5.6 °C 4.4 °C 1017.5 hPa Calm     89% 0 mm 0 W/m2
18:39 5.7 °C 4.5 °C 1017.5 hPa Calm     89% 0 mm 0 W/m2
18:44 5.7 °C 4.5 °C 1017.5 hPa Calm     89% 0 mm 0 W/m2
18:49 5.7 °C 4.5 °C 1017.5 hPa Calm     89% 0 mm 0 W/m2
18:53 5.7 °C 4.6 °C 1017.5 hPa Calm     89% 0 mm 0 W/m2
18:59 5.8 °C 4.6 °C 1017.5 hPa Calm     89% 0 mm 0 W/m2
19:04 5.8 °C 4.6 °C 1017.5 hPa Calm     89% 0 mm 0 W/m2
19:09 5.8 °C 4.6 °C 1017.5 hPa Calm     89% 0 mm 0 W/m2
19:14 5.8 °C 4.6 °C 1017.5 hPa Calm     89% 0 mm 0 W/m2
19:19 5.8 °C 4.6 °C 1017.2 hPa Calm     89% 0 mm 0 W/m2
19:24 5.8 °C 4.6 °C 1017.5 hPa Calm     89% 0 mm 0 W/m2
19:29 5.9 °C 4.7 °C 1017.2 hPa Calm     89% 0 mm 0 W/m2
19:34 5.9 °C 4.7 °C 1017.2 hPa Calm     89% 0 mm 0 W/m2
19:39 5.9 °C 4.7 °C 1017.2 hPa Calm     89% 0 mm 0 W/m2
19:44 6 °C 4.8 °C 1017.2 hPa Calm     89% 0 mm 0 W/m2
19:49 6.1 °C 4.8 °C 1017.2 hPa Calm     89% 0 mm 0 W/m2
19:54 5.9 °C 4.7 °C 1017.2 hPa Calm     89% 0 mm 0 W/m2
19:59 5.9 °C 4.9 °C 1017.2 hPa Calm     90% 0 mm 0 W/m2
20:04 5.9 °C 4.9 °C 1017.2 hPa Calm     90% 0 mm 0 W/m2
20:09 5.9 °C 4.9 °C 1017.2 hPa Calm     90% 0 mm 0 W/m2
20:14 5.9 °C 4.9 °C 1017.2 hPa Calm     90% 0 mm 0 W/m2
20:19 5.9 °C 4.9 °C 1017.2 hPa Calm     90% 0 mm 0 W/m2
20:24 5.8 °C 4.8 °C 1017.2 hPa Calm     90% 0 mm 0 W/m2
20:29 5.9 °C 4.9 °C 1016.8 hPa Calm     90% 0 mm 0 W/m2
20:34 5.8 °C 4.8 °C 1016.8 hPa Calm     90% 0 mm 0 W/m2
20:39 5.8 °C 4.8 °C 1016.8 hPa Calm     90% 0 mm 0 W/m2
20:44 5.8 °C 4.8 °C 1016.8 hPa Calm     90% 0 mm 0 W/m2
20:49 5.8 °C 4.8 °C 1016.8 hPa Calm     90% 0 mm 0 W/m2
20:54 5.7 °C 4.7 °C 1016.8 hPa Calm     90% 0 mm 0 W/m2
20:59 5.7 °C 4.7 °C 1016.8 hPa Calm     90% 0 mm 0 W/m2
21:04 5.7 °C 4.7 °C 1016.8 hPa Calm     90% 0 mm 0 W/m2
21:09 5.7 °C 4.7 °C 1016.8 hPa Calm     90% 0 mm 0 W/m2
21:14 5.7 °C 4.7 °C 1016.8 hPa Calm     90% 0 mm 0 W/m2
21:19 5.6 °C 4.6 °C 1016.8 hPa Calm     90% 0 mm 0 W/m2
21:24 5.6 °C 4.6 °C 1016.8 hPa Calm     90% 0 mm 0 W/m2
21:29 5.6 °C 4.6 °C 1016.8 hPa Calm     90% 0 mm 0 W/m2
21:34 5.6 °C 4.6 °C 1016.8 hPa Calm     90% 0 mm 0 W/m2
21:39 5.6 °C 4.6 °C 1016.8 hPa Calm     90% 0 mm 0 W/m2
21:44 5.5 °C 4.6 °C 1016.8 hPa Calm     90.8% 0 mm 0 W/m2
21:49 5.5 °C 4.6 °C 1016.8 hPa Calm     91% 0 mm 0 W/m2
21:54 5.5 °C 4.6 °C 1016.8 hPa Calm     91% 0 mm 0 W/m2
21:59 5.5 °C 4.6 °C 1016.8 hPa Calm     91% 0 mm 0 W/m2
22:04 5.5 °C 4.6 °C 1016.8 hPa Calm     91% 0 mm 0 W/m2
22:09 5.5 °C 4.6 °C 1016.8 hPa Calm     91% 0 mm 0 W/m2
22:14 5.6 °C 4.7 °C 1016.8 hPa Calm     91% 0 mm 0 W/m2
22:19 5.5 °C 4.6 °C 1016.8 hPa Calm     91% 0 mm 0 W/m2
22:24 5.4 °C 4.6 °C 1016.8 hPa Calm     91% 0 mm 0 W/m2
22:29 5.4 °C 4.5 °C 1016.8 hPa Calm     91% 0 mm 0 W/m2
22:34 5.4 °C 4.5 °C 1016.8 hPa Calm     91% 0 mm 0 W/m2
22:39 5.4 °C 4.5 °C 1016.8 hPa Calm     91% 0 mm 0 W/m2
22:44 5.4 °C 4.5 °C 1016.8 hPa Calm     91% 0 mm 0 W/m2
22:49 5.4 °C 4.6 °C 1016.8 hPa Calm     91% 0 mm 0 W/m2
22:54 5.6 °C 4.7 °C 1016.8 hPa Calm     91% 0 mm 0 W/m2
22:59 5.8 °C 4.9 °C 1016.8 hPa Calm     91.2% 0 mm 0 W/m2
23:04 6.1 °C 5.3 °C 1016.8 hPa Calm     92% 0 mm 0 W/m2
23:09 6.1 °C 5.4 °C 1016.8 hPa North 2.3 km/h 12.9 km/h 92% 0 mm 0 W/m2
23:14 6.2 °C 5.5 °C 1017.2 hPa North 1 km/h 9.7 km/h 92% 0 mm 0 W/m2
23:19 6.2 °C 5.5 °C 1016.8 hPa North 7.7 km/h 12.9 km/h 92% 0 mm 0 W/m2
23:24 6.2 °C 5.5 °C 1016.8 hPa North 8 km/h 16.1 km/h 92% 0 mm 0 W/m2
23:29 6.2 °C 5.4 °C 1016.8 hPa North 7.9 km/h 11.3 km/h 91.6% 0 mm 0 W/m2
23:34 6.3 °C 5.5 °C 1017.2 hPa North 6.1 km/h 16.1 km/h 91.6% 0 mm 0 W/m2
23:39 6.3 °C 5.4 °C 1016.8 hPa North 8 km/h 14.5 km/h 91% 0 mm 0 W/m2
23:44 6.4 °C 5.5 °C 1017.2 hPa North 7.7 km/h 12.9 km/h 91% 0 mm 0 W/m2
23:49 6.4 °C 5.4 °C 1017.2 hPa North 7.9 km/h 12.9 km/h 90.6% 0 mm 0 W/m2
23:54 6.4 °C 5.4 °C 1017.2 hPa North 6.8 km/h 12.9 km/h 90.6% 0 mm 0 W/m2
23:59 6.4 °C 5.4 °C 1017.2 hPa North 2.7 km/h 11.3 km/h 90% 0 mm 0 W/m2
Bath Spa Weather
Compliments of Weather Underground - 2 mb